createdAt,value
2023-01-11T00:00:23.195Z,61.87
2023-01-11T00:00:47.566Z,61.86
2023-01-11T00:01:11.059Z,61.91
2023-01-11T00:01:33.051Z,61.84
2023-01-11T00:01:55.290Z,61.92
2023-01-11T00:02:17.033Z,61.97
2023-01-11T00:02:38.753Z,61.94
2023-01-11T00:03:01.517Z,61.94
2023-01-11T00:03:23.194Z,61.98
2023-01-11T00:03:44.883Z,62.04
2023-01-11T00:04:06.992Z,62.03
2023-01-11T00:04:29.700Z,62.02
2023-01-11T00:04:51.963Z,62.10
2023-01-11T00:05:13.967Z,62.06
2023-01-11T00:05:39.736Z,62.14
2023-01-11T00:06:02.002Z,62.22
2023-01-11T00:06:23.931Z,62.19
2023-01-11T00:06:46.762Z,62.28
2023-01-11T00:07:09.014Z,62.19
2023-01-11T00:07:30.811Z,62.19
2023-01-11T00:07:52.490Z,62.17
2023-01-11T00:08:14.184Z,62.27
2023-01-11T00:08:36.081Z,62.26
2023-01-11T00:08:59.075Z,62.31
2023-01-11T00:09:20.680Z,62.37
2023-01-11T00:09:42.289Z,62.34
2023-01-11T00:10:04.325Z,62.39
2023-01-11T00:10:26.513Z,62.19
2023-01-11T00:10:48.299Z,62.34
2023-01-11T00:11:12.061Z,62.26
2023-01-11T00:11:34.214Z,62.21
2023-01-11T00:11:55.901Z,62.15
2023-01-11T00:12:17.891Z,62.26
2023-01-11T00:12:39.573Z,62.13
2023-01-11T00:13:01.359Z,62.11
2023-01-11T00:13:23.281Z,62.14
2023-01-11T00:13:45.342Z,62.17
2023-01-11T00:14:07.023Z,62.05
2023-01-11T00:14:28.699Z,62.12
2023-01-11T00:14:50.379Z,62.13
2023-01-11T00:15:12.436Z,62.06
2023-01-11T00:15:34.771Z,62.13
2023-01-11T00:15:56.466Z,62.17
2023-01-11T00:16:18.218Z,62.14
2023-01-11T00:16:39.920Z,62.14
2023-01-11T00:17:01.599Z,62.11
2023-01-11T00:17:23.589Z,62.15
2023-01-11T00:17:45.477Z,62.12
2023-01-11T00:18:07.261Z,62.19
2023-01-11T00:18:29.353Z,62.14
2023-01-11T00:18:50.870Z,62.15
2023-01-11T00:19:12.724Z,62.15
2023-01-11T00:19:34.703Z,62.13
2023-01-11T00:19:56.392Z,62.05
2023-01-11T00:20:18.893Z,62.07
2023-01-11T00:20:41.081Z,62.34
2023-01-11T00:21:05.046Z,62.21
2023-01-11T00:21:26.908Z,62.23
2023-01-11T00:21:48.890Z,62.18
2023-01-11T00:22:10.688Z,62.37
2023-01-11T00:22:32.278Z,62.33
2023-01-11T00:22:53.817Z,62.30
2023-01-11T00:23:15.824Z,62.20
2023-01-11T00:23:39.478Z,62.31
2023-01-11T00:24:01.234Z,62.26
2023-01-11T00:24:23.051Z,62.35
2023-01-11T00:24:44.700Z,62.33
2023-01-11T00:25:06.892Z,62.32
2023-01-11T00:25:28.633Z,62.43
2023-01-11T00:25:50.350Z,62.40
2023-01-11T00:26:12.562Z,62.46
2023-01-11T00:26:35.173Z,62.50
2023-01-11T00:26:56.940Z,62.49
2023-01-11T00:27:18.661Z,62.47
2023-01-11T00:27:40.425Z,62.49
2023-01-11T00:28:02.291Z,62.49
2023-01-11T00:28:24.382Z,62.58
2023-01-11T00:28:47.703Z,62.55
2023-01-11T00:29:09.218Z,62.64
2023-01-11T00:29:30.974Z,62.68
2023-01-11T00:29:52.613Z,62.72
2023-01-11T00:30:17.905Z,62.68
2023-01-11T00:30:41.128Z,62.70
2023-01-11T00:31:02.798Z,62.70
2023-01-11T00:31:24.974Z,62.82
2023-01-11T00:31:46.801Z,62.78
2023-01-11T00:32:08.291Z,62.83
2023-01-11T00:32:31.036Z,62.79
2023-01-11T00:32:58.786Z,62.84
2023-01-11T00:33:20.309Z,62.84
2023-01-11T00:33:42.360Z,62.88
2023-01-11T00:34:04.195Z,62.84
2023-01-11T00:34:25.830Z,62.93
2023-01-11T00:34:47.433Z,62.72
2023-01-11T00:35:09.295Z,62.78
2023-01-11T00:35:31.911Z,62.67
2023-01-11T00:35:53.723Z,62.73
2023-01-11T00:36:15.369Z,62.58
2023-01-11T00:36:37.046Z,62.87
2023-01-11T00:36:58.723Z,62.65
2023-01-11T00:37:20.925Z,62.66
2023-01-11T00:37:42.528Z,62.64
2023-01-11T00:38:05.040Z,62.55
2023-01-11T00:38:43.144Z,62.59
2023-01-11T00:39:05.783Z,62.59
2023-01-11T00:39:27.841Z,62.59
2023-01-11T00:39:49.625Z,62.62
2023-01-11T00:40:11.610Z,62.48
2023-01-11T00:40:33.439Z,62.59
2023-01-11T00:40:54.972Z,62.58
2023-01-11T00:41:36.198Z,62.52
2023-01-11T00:42:16.692Z,62.54
2023-01-11T00:42:56.990Z,62.59
2023-01-11T00:43:37.591Z,62.51
2023-01-11T00:44:18.608Z,62.72
2023-01-11T00:44:58.999Z,62.59
2023-01-11T00:45:39.405Z,62.73
2023-01-11T00:46:21.338Z,62.79
2023-01-11T00:47:01.845Z,62.83
2023-01-11T00:47:42.439Z,62.80
2023-01-11T00:48:05.355Z,62.82
2023-01-11T00:48:27.440Z,62.80
2023-01-11T00:48:49.330Z,62.84
2023-01-11T00:49:11.008Z,62.86
2023-01-11T00:49:32.698Z,62.86
2023-01-11T00:49:54.380Z,62.88
2023-01-11T00:50:16.072Z,62.94
2023-01-11T00:50:38.554Z,63.01
2023-01-11T00:51:00.135Z,63.09
2023-01-11T00:51:21.885Z,63.07
2023-01-11T00:51:43.466Z,63.08
2023-01-11T00:52:08.221Z,63.05
2023-01-11T00:52:29.836Z,63.09
2023-01-11T00:52:51.488Z,63.08
2023-01-11T00:53:14.021Z,63.05
2023-01-11T00:53:35.798Z,63.19
2023-01-11T00:53:57.389Z,63.25
2023-01-11T00:54:19.673Z,63.23
2023-01-11T00:54:41.402Z,63.31
2023-01-11T00:55:03.372Z,63.35
2023-01-11T00:55:25.540Z,63.39
2023-01-11T00:55:47.367Z,63.37
2023-01-11T00:56:09.221Z,63.39
2023-01-11T00:56:30.994Z,63.48
2023-01-11T00:56:52.986Z,63.40
2023-01-11T00:57:14.664Z,63.45
2023-01-11T00:57:36.345Z,63.47
2023-01-11T00:57:58.538Z,63.48
2023-01-11T00:58:20.123Z,63.54
2023-01-11T00:58:41.734Z,63.55
2023-01-11T00:59:04.301Z,63.55
2023-01-11T00:59:25.881Z,63.56
2023-01-11T00:59:47.932Z,63.54
2023-01-11T01:00:12.111Z,63.57
2023-01-11T01:00:35.427Z,63.60
2023-01-11T01:00:58.135Z,63.59
2023-01-11T01:01:19.974Z,63.51
2023-01-11T01:01:41.829Z,63.51
2023-01-11T01:02:04.008Z,63.45
2023-01-11T01:02:25.822Z,63.52
2023-01-11T01:02:47.730Z,63.42
2023-01-11T01:03:09.659Z,63.41
2023-01-11T01:03:31.590Z,63.37
2023-01-11T01:03:53.740Z,63.33
2023-01-11T01:04:16.268Z,63.31
2023-01-11T01:04:38.353Z,63.22
2023-01-11T01:05:00.032Z,63.28
2023-01-11T01:05:21.903Z,63.34
2023-01-11T01:05:43.586Z,63.25
2023-01-11T01:06:07.312Z,63.17
2023-01-11T01:06:28.985Z,63.19
2023-01-11T01:06:50.786Z,63.19
2023-01-11T01:07:13.333Z,63.09
2023-01-11T01:07:35.605Z,63.07
2023-01-11T01:07:57.360Z,63.08
2023-01-11T01:08:19.473Z,63.20
2023-01-11T01:08:41.539Z,63.15
2023-01-11T01:09:03.179Z,63.21
2023-01-11T01:09:25.529Z,63.20
2023-01-11T01:09:47.303Z,63.17
2023-01-11T01:10:09.702Z,63.25
2023-01-11T01:10:31.587Z,63.24
2023-01-11T01:10:53.690Z,63.33
2023-01-11T01:11:16.217Z,63.33
2023-01-11T01:11:38.065Z,63.30
2023-01-11T01:12:01.635Z,63.38
2023-01-11T01:12:42.299Z,63.45
2023-01-11T01:13:23.207Z,63.62
2023-01-11T01:14:03.715Z,63.58
2023-01-11T01:14:25.487Z,63.72
2023-01-11T01:14:47.272Z,63.65
2023-01-11T01:15:09.156Z,63.76
2023-01-11T01:15:31.585Z,63.75
2023-01-11T01:15:55.990Z,63.85
2023-01-11T01:16:19.022Z,63.83
2023-01-11T01:16:41.822Z,63.90
2023-01-11T01:17:06.570Z,63.85
2023-01-11T01:17:28.763Z,63.89
2023-01-11T01:17:54.638Z,63.90
2023-01-11T01:18:16.231Z,63.92
2023-01-11T01:18:38.213Z,63.98
2023-01-11T01:18:59.890Z,63.98
2023-01-11T01:19:22.128Z,63.93
2023-01-11T01:19:43.951Z,64.02
2023-01-11T01:20:06.488Z,63.98
2023-01-11T01:20:28.668Z,63.91
2023-01-11T01:20:50.450Z,64.05
2023-01-11T01:21:12.057Z,63.86
2023-01-11T01:21:33.865Z,63.93
2023-01-11T01:21:56.010Z,63.80
2023-01-11T01:22:17.893Z,63.79
2023-01-11T01:22:39.474Z,63.77
2023-01-11T01:23:01.275Z,63.83
2023-01-11T01:23:26.323Z,63.68
2023-01-11T01:23:52.617Z,63.70
2023-01-11T01:24:14.950Z,63.81
2023-01-11T01:24:37.193Z,63.66
2023-01-11T01:24:58.873Z,63.74
2023-01-11T01:25:20.890Z,63.70
2023-01-11T01:25:42.464Z,63.55
2023-01-11T01:26:04.541Z,63.69
2023-01-11T01:26:26.321Z,63.66
2023-01-11T01:26:48.106Z,63.68
2023-01-11T01:27:15.204Z,63.66
2023-01-11T01:27:36.900Z,63.69
2023-01-11T01:27:58.681Z,63.58
2023-01-11T01:28:21.585Z,63.69
2023-01-11T01:28:43.266Z,63.65
2023-01-11T01:29:05.156Z,63.67
2023-01-11T01:29:27.040Z,63.71
2023-01-11T01:29:48.723Z,63.78
2023-01-11T01:30:10.602Z,63.67
2023-01-11T01:30:33.146Z,63.80
2023-01-11T01:30:54.804Z,63.77
2023-01-11T01:31:19.113Z,63.84
2023-01-11T01:31:42.856Z,63.78
2023-01-11T01:32:04.545Z,63.86
2023-01-11T01:32:27.652Z,63.92
2023-01-11T01:32:49.237Z,64.09
2023-01-11T01:33:10.860Z,64.01
2023-01-11T01:33:32.600Z,64.04
2023-01-11T01:33:54.668Z,64.09
2023-01-11T01:34:16.576Z,64.26
2023-01-11T01:34:38.576Z,64.28
2023-01-11T01:35:00.255Z,64.21
2023-01-11T01:35:21.994Z,64.26
2023-01-11T01:35:43.762Z,64.24
2023-01-11T01:36:05.704Z,64.33
2023-01-11T01:36:27.329Z,64.25
2023-01-11T01:36:49.068Z,64.34
2023-01-11T01:37:10.713Z,64.32
2023-01-11T01:37:32.330Z,64.32
2023-01-11T01:37:53.968Z,64.43
2023-01-11T01:38:15.798Z,64.37
2023-01-11T01:38:37.411Z,64.47
2023-01-11T01:39:00.417Z,64.41
2023-01-11T01:39:22.176Z,64.46
2023-01-11T01:39:45.642Z,64.42
2023-01-11T01:40:07.691Z,64.34
2023-01-11T01:40:31.414Z,64.40
2023-01-11T01:40:53.509Z,64.29
2023-01-11T01:41:15.496Z,64.29
2023-01-11T01:41:37.110Z,64.20
2023-01-11T01:41:59.061Z,64.18
2023-01-11T01:42:21.060Z,64.15
2023-01-11T01:42:42.678Z,64.21
2023-01-11T01:43:04.780Z,64.21
2023-01-11T01:43:47.470Z,64.10
2023-01-11T01:44:28.488Z,64.13
2023-01-11T01:44:57.425Z,64.15
2023-01-11T01:45:23.343Z,64.16
2023-01-11T01:45:45.292Z,64.11
2023-01-11T01:46:06.928Z,64.13
2023-01-11T01:46:29.354Z,64.12
2023-01-11T01:46:51.062Z,64.04
2023-01-11T01:47:14.968Z,64.11
2023-01-11T01:47:36.682Z,64.14
2023-01-11T01:48:01.737Z,64.13
2023-01-11T01:48:24.703Z,64.11
2023-01-11T01:48:47.989Z,64.19
2023-01-11T01:49:11.684Z,64.32
2023-01-11T01:49:33.397Z,64.15
2023-01-11T01:49:55.763Z,64.24
2023-01-11T01:50:21.676Z,64.23
2023-01-11T01:50:47.420Z,64.28
2023-01-11T01:51:09.198Z,64.28
2023-01-11T01:51:38.751Z,64.35
2023-01-11T01:52:00.331Z,64.40
2023-01-11T01:52:28.411Z,64.39
2023-01-11T01:52:51.334Z,64.51
2023-01-11T01:53:16.632Z,64.48
2023-01-11T01:53:40.051Z,64.45
2023-01-11T01:54:03.273Z,64.55
2023-01-11T01:54:27.331Z,64.66
2023-01-11T01:54:48.934Z,64.64
2023-01-11T01:55:11.487Z,64.70
2023-01-11T01:55:34.637Z,64.74
2023-01-11T01:55:57.917Z,64.77
2023-01-11T01:56:22.874Z,64.73
2023-01-11T01:56:48.450Z,64.66
2023-01-11T01:57:12.003Z,64.70
2023-01-11T01:57:33.978Z,64.72
2023-01-11T01:57:55.839Z,64.75
2023-01-11T01:58:18.041Z,64.80
2023-01-11T01:58:40.873Z,64.79
2023-01-11T01:59:04.365Z,64.84
2023-01-11T01:59:26.202Z,64.81
2023-01-11T01:59:51.107Z,64.87
2023-01-11T02:00:13.336Z,64.88
2023-01-11T02:00:37.230Z,64.90
2023-01-11T02:01:18.825Z,64.91
2023-01-11T02:01:48.380Z,64.75
2023-01-11T02:02:10.802Z,64.62
2023-01-11T02:02:32.587Z,64.63
2023-01-11T02:02:54.771Z,64.56
2023-01-11T02:03:20.675Z,64.51
2023-01-11T02:03:42.271Z,64.48
2023-01-11T02:04:05.256Z,64.46
2023-01-11T02:04:27.262Z,64.51
2023-01-11T02:04:49.031Z,64.42
2023-01-11T02:05:11.019Z,64.44
2023-01-11T02:05:32.710Z,64.44
2023-01-11T02:05:54.396Z,64.31
2023-01-11T02:06:16.091Z,64.36
2023-01-11T02:06:38.090Z,64.42
2023-01-11T02:07:02.395Z,64.36
2023-01-11T02:07:29.126Z,64.38
2023-01-11T02:07:51.615Z,64.35
2023-01-11T02:08:25.879Z,64.40
2023-01-11T02:08:48.824Z,64.47
2023-01-11T02:09:17.601Z,64.36
2023-01-11T02:09:42.761Z,64.34
2023-01-11T02:10:07.820Z,64.43
2023-01-11T02:10:29.910Z,64.44
2023-01-11T02:10:52.514Z,64.47
2023-01-11T02:11:29.241Z,64.46
2023-01-11T02:11:52.970Z,64.45
2023-01-11T02:12:14.648Z,64.47
2023-01-11T02:12:40.014Z,64.50
2023-01-11T02:13:05.777Z,64.48
2023-01-11T02:13:27.487Z,64.38
2023-01-11T02:13:49.143Z,64.54
2023-01-11T02:14:12.810Z,64.58
2023-01-11T02:14:35.285Z,64.63
2023-01-11T02:14:58.589Z,64.55
2023-01-11T02:15:20.813Z,64.57
2023-01-11T02:15:42.571Z,64.53
2023-01-11T02:16:08.267Z,64.57
2023-01-11T02:16:30.072Z,64.54
2023-01-11T02:16:52.325Z,64.62
2023-01-11T02:17:15.633Z,64.65
2023-01-11T02:17:37.315Z,64.66
2023-01-11T02:17:59.207Z,64.48
2023-01-11T02:18:21.137Z,64.67
2023-01-11T02:18:42.912Z,64.73
2023-01-11T02:19:04.505Z,64.69
2023-01-11T02:19:45.772Z,64.70
2023-01-11T02:20:26.376Z,64.93
2023-01-11T02:21:02.786Z,64.81
2023-01-11T02:21:35.750Z,64.87
2023-01-11T02:22:00.449Z,64.91
2023-01-11T02:22:41.020Z,64.90
2023-01-11T02:23:15.640Z,65.08
2023-01-11T02:23:37.526Z,65.03
2023-01-11T02:24:04.741Z,65.02
2023-01-11T02:24:46.073Z,65.10
2023-01-11T02:25:13.874Z,65.18
2023-01-11T02:25:39.259Z,65.35
2023-01-11T02:26:03.598Z,65.28
2023-01-11T02:26:44.690Z,65.22
2023-01-11T02:27:25.643Z,65.16
2023-01-11T02:27:53.025Z,65.17
2023-01-11T02:28:20.217Z,65.09
2023-01-11T02:28:47.855Z,65.06
2023-01-11T02:29:09.714Z,65.06
2023-01-11T02:29:34.672Z,65.12
2023-01-11T02:30:05.803Z,65.04
2023-01-11T02:30:35.933Z,64.96
2023-01-11T02:31:19.688Z,64.99
2023-01-11T02:32:04.816Z,64.96
2023-01-11T02:32:47.559Z,64.89
2023-01-11T02:33:15.224Z,64.98
2023-01-11T02:33:40.029Z,64.97
2023-01-11T02:34:07.537Z,64.95
2023-01-11T02:34:35.154Z,64.92
2023-01-11T02:34:59.696Z,64.92
2023-01-11T02:35:39.996Z,64.94
2023-01-11T02:36:09.141Z,64.91
2023-01-11T02:36:31.639Z,64.96
2023-01-11T02:37:03.245Z,65.02
2023-01-11T02:37:43.720Z,65.02
2023-01-11T02:38:07.214Z,65.08
2023-01-11T02:38:32.837Z,65.02
2023-01-11T02:39:01.786Z,65.09
2023-01-11T02:39:30.523Z,65.04
2023-01-11T02:39:55.476Z,65.17
2023-01-11T02:40:26.474Z,65.16
2023-01-11T02:41:17.606Z,65.26
2023-01-11T02:41:58.630Z,65.28
2023-01-11T02:42:43.321Z,65.36
2023-01-11T02:43:26.173Z,65.37
2023-01-11T02:44:07.999Z,65.58
2023-01-11T02:44:53.955Z,65.57
2023-01-11T02:45:19.717Z,65.57
2023-01-11T02:45:47.611Z,65.52
2023-01-11T02:46:14.460Z,65.55
2023-01-11T02:46:41.968Z,65.57
2023-01-11T02:47:04.177Z,65.55
2023-01-11T02:47:34.995Z,65.58
2023-01-11T02:48:00.131Z,65.52
2023-01-11T02:48:30.837Z,65.48
2023-01-11T02:48:56.684Z,65.46
2023-01-11T02:49:20.950Z,65.37
2023-01-11T02:49:46.751Z,65.45
2023-01-11T02:50:29.986Z,65.37
2023-01-11T02:50:52.514Z,65.36
2023-01-11T02:51:19.838Z,65.33
2023-01-11T02:51:46.905Z,65.36
2023-01-11T02:52:12.344Z,65.31
2023-01-11T02:52:57.566Z,65.31
2023-01-11T02:53:27.337Z,65.26
2023-01-11T02:53:51.365Z,65.16
2023-01-11T02:54:13.357Z,65.30
2023-01-11T02:54:35.047Z,65.30
2023-01-11T02:54:57.156Z,65.30
2023-01-11T02:55:20.699Z,65.29
2023-01-11T02:55:47.961Z,65.25
2023-01-11T02:56:10.902Z,65.17
2023-01-11T02:57:35.652Z,65.17
2023-01-11T02:57:57.962Z,65.21
2023-01-11T02:58:20.245Z,65.20
2023-01-11T02:58:42.247Z,65.32
2023-01-11T02:59:04.016Z,65.33
2023-01-11T02:59:29.483Z,65.33
2023-01-11T02:59:51.315Z,65.44
2023-01-11T03:00:13.461Z,65.49
2023-01-11T03:00:37.497Z,65.51
2023-01-11T03:00:59.288Z,65.58
2023-01-11T03:01:22.975Z,65.57
2023-01-11T03:01:46.199Z,65.55
2023-01-11T03:02:08.078Z,65.60
2023-01-11T03:02:29.985Z,65.67
2023-01-11T03:03:10.481Z,65.64
2023-01-11T03:03:34.066Z,65.56
2023-01-11T03:03:56.420Z,65.68
2023-01-11T03:04:34.058Z,65.68
2023-01-11T03:04:55.850Z,65.65
2023-01-11T03:05:17.630Z,65.72
2023-01-11T03:05:43.998Z,65.71
2023-01-11T03:06:07.087Z,65.76
2023-01-11T03:06:31.211Z,65.77
2023-01-11T03:07:13.260Z,65.76
2023-01-11T03:07:34.983Z,65.76
2023-01-11T03:07:56.728Z,65.78
2023-01-11T03:08:38.700Z,65.83
2023-01-11T03:09:06.082Z,65.71
2023-01-11T03:09:32.398Z,65.73
2023-01-11T03:10:06.045Z,65.66
2023-01-11T03:10:46.541Z,65.53
2023-01-11T03:11:45.147Z,65.61
2023-01-11T03:12:28.816Z,65.61
2023-01-11T03:12:59.808Z,65.47
2023-01-11T03:13:41.839Z,65.56
2023-01-11T03:14:18.661Z,65.55
2023-01-11T03:14:40.454Z,65.56
2023-01-11T03:15:05.723Z,65.45
2023-01-11T03:15:27.490Z,65.56
2023-01-11T03:15:53.956Z,65.56
2023-01-11T03:16:23.312Z,65.61
2023-01-11T03:17:20.502Z,65.55
2023-01-11T03:18:01.118Z,65.59
2023-01-11T03:18:23.310Z,65.60
2023-01-11T03:18:47.791Z,65.60
2023-01-11T03:19:13.319Z,65.60
2023-01-11T03:19:36.939Z,65.65
2023-01-11T03:20:10.296Z,65.66
2023-01-11T03:20:33.382Z,65.71
2023-01-11T03:20:59.475Z,65.68
2023-01-11T03:21:40.079Z,65.81
2023-01-11T03:22:07.748Z,65.88
2023-01-11T03:22:35.100Z,65.83
2023-01-11T03:22:59.802Z,65.88
2023-01-11T03:23:25.837Z,65.91
2023-01-11T03:23:56.613Z,65.91
2023-01-11T03:24:18.602Z,66.08
2023-01-11T03:24:48.312Z,66.06
2023-01-11T03:25:14.442Z,66.08
2023-01-11T03:25:38.888Z,66.11
2023-01-11T03:26:07.424Z,66.12
2023-01-11T03:26:32.480Z,66.16
2023-01-11T03:27:06.536Z,66.14
2023-01-11T03:27:46.228Z,66.17
2023-01-11T03:28:15.476Z,66.20
2023-01-11T03:28:37.253Z,66.24
2023-01-11T03:29:17.347Z,66.13
2023-01-11T03:29:40.459Z,66.13
2023-01-11T03:30:13.702Z,66.16
2023-01-11T03:30:37.528Z,66.07
2023-01-11T03:31:02.337Z,66.11
2023-01-11T03:31:30.080Z,66.03
2023-01-11T03:32:11.008Z,65.98
2023-01-11T03:32:42.114Z,66.02
2023-01-11T03:33:03.892Z,65.96
2023-01-11T03:33:32.314Z,66.00
2023-01-11T03:33:56.755Z,65.91
2023-01-11T03:34:19.877Z,65.88
2023-01-11T03:34:50.160Z,65.86
2023-01-11T03:35:19.722Z,65.84
2023-01-11T03:36:00.113Z,65.86
2023-01-11T03:36:41.832Z,65.88
2023-01-11T03:37:06.287Z,65.94
2023-01-11T03:37:33.785Z,65.98
2023-01-11T03:38:18.683Z,65.91
2023-01-11T03:38:42.337Z,65.94
2023-01-11T03:39:09.209Z,66.00
2023-01-11T03:39:39.174Z,65.98
2023-01-11T03:40:06.173Z,66.03
2023-01-11T03:40:29.084Z,66.01
2023-01-11T03:40:51.900Z,66.03
2023-01-11T03:41:17.971Z,66.05
2023-01-11T03:41:39.646Z,66.07
2023-01-11T03:42:01.755Z,66.10
2023-01-11T03:42:23.837Z,66.07
2023-01-11T03:43:05.260Z,66.11
2023-01-11T03:43:27.044Z,66.25
2023-01-11T03:43:48.832Z,66.25
2023-01-11T03:44:11.025Z,66.35
2023-01-11T03:44:35.154Z,66.31
2023-01-11T03:44:56.847Z,66.28
2023-01-11T03:45:18.833Z,66.43
2023-01-11T03:45:43.580Z,66.49
2023-01-11T03:46:15.506Z,66.51
2023-01-11T03:46:39.161Z,66.48
2023-01-11T03:47:05.293Z,66.54
2023-01-11T03:47:27.491Z,66.55
2023-01-11T03:47:49.196Z,66.56
2023-01-11T03:48:21.900Z,66.69
2023-01-11T03:48:47.882Z,66.54
2023-01-11T03:49:11.216Z,66.61
2023-01-11T03:49:53.803Z,66.58
2023-01-11T03:50:15.637Z,66.58
2023-01-11T03:50:37.416Z,66.51
2023-01-11T03:50:59.511Z,66.48
2023-01-11T03:51:22.618Z,66.41
2023-01-11T03:51:44.910Z,66.45
2023-01-11T03:52:07.621Z,66.41
2023-01-11T03:52:31.450Z,66.39
2023-01-11T03:52:53.745Z,66.40
2023-01-11T03:53:15.836Z,66.46
2023-01-11T03:53:37.843Z,66.38
2023-01-11T03:54:00.129Z,66.36
2023-01-11T03:54:23.342Z,66.39
2023-01-11T03:54:45.646Z,66.32
2023-01-11T03:55:08.623Z,66.29
2023-01-11T03:55:30.654Z,66.41
2023-01-11T03:55:53.958Z,66.34
2023-01-11T03:56:16.168Z,66.30
2023-01-11T03:56:44.170Z,66.44
2023-01-11T03:57:10.962Z,66.29
2023-01-11T03:57:33.456Z,66.32
2023-01-11T03:57:55.250Z,66.28
2023-01-11T03:58:17.033Z,66.26
2023-01-11T03:58:39.023Z,66.31
2023-01-11T03:59:01.020Z,66.32
2023-01-11T03:59:22.795Z,66.30
2023-01-11T03:59:44.581Z,66.30
2023-01-11T04:00:06.674Z,66.24
2023-01-11T04:00:28.457Z,66.27
2023-01-11T04:00:50.288Z,66.23
2023-01-11T04:01:12.198Z,66.41
2023-01-11T04:01:34.141Z,66.40
2023-01-11T04:01:56.010Z,66.32
2023-01-11T04:02:36.915Z,66.38
2023-01-11T04:03:00.031Z,66.43
2023-01-11T04:03:22.114Z,66.34
2023-01-11T04:03:43.834Z,66.44
2023-01-11T04:04:05.654Z,66.45
2023-01-11T04:04:27.472Z,66.45
2023-01-11T04:04:49.358Z,66.48
2023-01-11T04:05:11.143Z,66.53
2023-01-11T04:05:33.087Z,66.55
2023-01-11T04:05:55.535Z,66.55
2023-01-11T04:06:17.316Z,66.62
2023-01-11T04:06:39.995Z,66.74
2023-01-11T04:07:01.978Z,66.70
2023-01-11T04:07:23.822Z,66.72
2023-01-11T04:07:45.580Z,66.81
2023-01-11T04:08:07.364Z,66.85
2023-01-11T04:08:29.147Z,66.87
2023-01-11T04:08:50.889Z,66.91
2023-01-11T04:09:12.616Z,66.99
2023-01-11T04:09:35.162Z,67.00
2023-01-11T04:09:58.942Z,67.04
2023-01-11T04:10:20.653Z,66.94
2023-01-11T04:10:42.411Z,67.01
2023-01-11T04:11:05.016Z,67.08
2023-01-11T04:11:26.729Z,67.12
2023-01-11T04:11:48.698Z,67.15
2023-01-11T04:12:10.578Z,67.14
2023-01-11T04:12:32.375Z,67.11
2023-01-11T04:12:54.121Z,67.16
2023-01-11T04:13:15.825Z,67.10
2023-01-11T04:13:37.608Z,67.13
2023-01-11T04:13:59.393Z,67.16
2023-01-11T04:14:21.089Z,67.06
2023-01-11T04:14:42.819Z,67.01
2023-01-11T04:15:05.394Z,67.07
2023-01-11T04:15:27.146Z,66.99
2023-01-11T04:15:48.926Z,66.94
2023-01-11T04:16:10.669Z,66.82
2023-01-11T04:16:32.541Z,66.82
2023-01-11T04:16:54.283Z,66.76
2023-01-11T04:17:16.067Z,66.71
2023-01-11T04:17:37.849Z,66.72
2023-01-11T04:18:05.564Z,66.67
2023-01-11T04:18:27.300Z,66.63
2023-01-11T04:18:49.032Z,66.64
2023-01-11T04:19:10.821Z,66.67
2023-01-11T04:19:32.525Z,66.53
2023-01-11T04:19:54.284Z,66.60
2023-01-11T04:20:16.072Z,66.62
2023-01-11T04:20:38.977Z,66.62
2023-01-11T04:21:00.764Z,66.57
2023-01-11T04:21:22.549Z,66.55
2023-01-11T04:21:44.286Z,66.61
2023-01-11T04:22:06.021Z,66.59
2023-01-11T04:22:27.711Z,66.65
2023-01-11T04:22:49.482Z,66.65
2023-01-11T04:23:11.474Z,66.62
2023-01-11T04:23:33.459Z,66.60
2023-01-11T04:23:55.246Z,66.63
2023-01-11T04:24:18.661Z,66.64
2023-01-11T04:24:40.455Z,66.79
2023-01-11T04:25:02.236Z,66.79
2023-01-11T04:25:24.018Z,66.76
2023-01-11T04:25:47.163Z,66.77
2023-01-11T04:26:08.919Z,66.83
2023-01-11T04:26:30.598Z,66.91
2023-01-11T04:26:52.307Z,66.88
2023-01-11T04:27:14.075Z,66.89
2023-01-11T04:27:35.816Z,66.97
2023-01-11T04:27:57.837Z,67.03
2023-01-11T04:28:19.623Z,67.08
2023-01-11T04:28:41.406Z,67.07
2023-01-11T04:29:03.195Z,67.15
2023-01-11T04:29:24.908Z,67.17
2023-01-11T04:29:46.764Z,67.08
2023-01-11T04:30:09.069Z,67.23
2023-01-11T04:30:30.784Z,67.20
2023-01-11T04:30:52.727Z,67.18
2023-01-11T04:31:14.664Z,67.25
2023-01-11T04:31:36.641Z,67.25
2023-01-11T04:31:58.492Z,67.32
2023-01-11T04:32:20.275Z,67.27
2023-01-11T04:32:42.058Z,67.25
2023-01-11T04:33:03.842Z,67.24
2023-01-11T04:33:25.628Z,67.22
2023-01-11T04:33:47.319Z,67.08
2023-01-11T04:34:09.051Z,67.13
2023-01-11T04:34:30.878Z,67.10
2023-01-11T04:34:52.665Z,67.06
2023-01-11T04:35:14.456Z,67.04
2023-01-11T04:35:36.244Z,67.03
2023-01-11T04:35:57.944Z,67.00
2023-01-11T04:36:19.654Z,66.93
2023-01-11T04:36:41.407Z,66.81
2023-01-11T04:37:03.367Z,66.90
2023-01-11T04:37:25.154Z,66.84
2023-01-11T04:37:46.945Z,66.90
2023-01-11T04:38:08.729Z,66.85
2023-01-11T04:38:30.507Z,66.84
2023-01-11T04:38:52.301Z,66.89
2023-01-11T04:39:14.008Z,66.86
2023-01-11T04:39:35.762Z,66.96
2023-01-11T04:39:57.543Z,66.80
2023-01-11T04:40:19.367Z,66.91
2023-01-11T04:40:41.116Z,66.87
2023-01-11T04:41:23.576Z,66.92
2023-01-11T04:42:04.366Z,66.94
2023-01-11T04:42:26.091Z,66.92
2023-01-11T04:42:47.837Z,67.03
2023-01-11T04:43:09.576Z,66.96
2023-01-11T04:43:31.398Z,67.07
2023-01-11T04:43:58.812Z,67.10
2023-01-11T04:44:20.516Z,67.10
2023-01-11T04:44:42.226Z,67.17
2023-01-11T04:45:07.309Z,67.17
2023-01-11T04:45:29.782Z,67.11
2023-01-11T04:45:51.639Z,67.21
2023-01-11T04:46:13.507Z,67.25
2023-01-11T04:46:35.291Z,67.34
2023-01-11T04:46:57.079Z,67.33
2023-01-11T04:47:19.678Z,67.44
2023-01-11T04:47:41.464Z,67.39
2023-01-11T04:48:03.657Z,67.46
2023-01-11T04:48:25.439Z,67.52
2023-01-11T04:48:47.238Z,67.51
2023-01-11T04:49:09.010Z,67.58
2023-01-11T04:49:30.790Z,67.55
2023-01-11T04:49:52.784Z,67.59
2023-01-11T04:50:14.585Z,67.59
2023-01-11T04:50:36.407Z,67.49
2023-01-11T04:50:58.241Z,67.60
2023-01-11T04:51:20.049Z,67.65
2023-01-11T04:51:41.850Z,67.64
2023-01-11T04:52:03.699Z,67.63
2023-01-11T04:52:25.401Z,67.63
2023-01-11T04:52:47.161Z,67.59
2023-01-11T04:53:08.944Z,67.53
2023-01-11T04:53:30.637Z,67.54
2023-01-11T04:53:52.383Z,67.49
2023-01-11T04:54:15.533Z,67.48
2023-01-11T04:54:37.519Z,67.46
2023-01-11T04:54:59.299Z,67.47
2023-01-11T04:55:21.286Z,67.40
2023-01-11T04:55:43.700Z,67.41
2023-01-11T04:56:06.101Z,67.39
2023-01-11T04:56:29.408Z,67.30
2023-01-11T04:56:51.115Z,67.29
2023-01-11T04:57:14.211Z,67.33
2023-01-11T04:57:36.000Z,67.35
2023-01-11T04:57:57.692Z,67.26
2023-01-11T04:58:19.450Z,67.23
2023-01-11T04:58:41.233Z,67.13
2023-01-11T04:59:03.042Z,67.26
2023-01-11T04:59:25.012Z,67.27
2023-01-11T04:59:46.911Z,67.22
2023-01-11T05:00:10.979Z,67.24
2023-01-11T05:00:32.820Z,67.26
2023-01-11T05:00:54.656Z,67.25
2023-01-11T05:01:17.352Z,67.27
2023-01-11T05:01:39.131Z,67.27
2023-01-11T05:02:00.806Z,67.27
2023-01-11T05:02:22.542Z,67.36
2023-01-11T05:02:44.342Z,67.25
2023-01-11T05:03:06.071Z,67.18
2023-01-11T05:03:27.909Z,67.26
2023-01-11T05:03:49.727Z,67.28
2023-01-11T05:04:13.492Z,67.23
2023-01-11T05:04:35.633Z,67.25
2023-01-11T05:04:57.615Z,67.32
2023-01-11T05:05:19.328Z,67.36
2023-01-11T05:05:41.174Z,67.39
2023-01-11T05:06:02.958Z,67.34
2023-01-11T05:06:24.830Z,67.48
2023-01-11T05:06:46.763Z,67.49
2023-01-11T05:07:08.796Z,67.52
2023-01-11T05:07:30.608Z,67.57
2023-01-11T05:07:52.390Z,67.57
2023-01-11T05:08:14.183Z,67.60
2023-01-11T05:08:35.981Z,67.60
2023-01-11T05:08:57.748Z,67.71
2023-01-11T05:09:19.471Z,67.67
2023-01-11T05:09:41.207Z,67.69
2023-01-11T05:10:02.990Z,67.66
2023-01-11T05:10:24.783Z,67.82
2023-01-11T05:10:51.992Z,67.72
2023-01-11T05:11:13.723Z,67.78
2023-01-11T05:11:35.404Z,67.80
2023-01-11T05:11:57.118Z,67.89
2023-01-11T05:12:18.924Z,67.88
2023-01-11T05:12:40.665Z,67.93
2023-01-11T05:13:02.488Z,67.99
2023-01-11T05:13:41.867Z,67.96
2023-01-11T05:14:03.751Z,67.91
2023-01-11T05:14:25.544Z,67.84
2023-01-11T05:14:47.334Z,67.88
2023-01-11T05:15:09.615Z,67.93
2023-01-11T05:15:31.298Z,67.83
2023-01-11T05:15:52.982Z,67.79
2023-01-11T05:16:14.790Z,67.69
2023-01-11T05:16:36.709Z,67.64
2023-01-11T05:16:59.170Z,67.75